Time;durP1;ratioP1;P1;durP2;ratioP2;P2;SDS_P1;SDS_P2;PMS_P1;PMS_P2;Temp;Humidity;BMP_temperature;BMP_pressure;BME280_temperature;BME280_humidity;BME280_pressure;Samples;Min_cycle;Max_cycle;Signal;HPM_P1;HPM_P2
2023/12/11 00:00:25;;;;;;;27.25;6.15;;;7.10;99.90;;;;;;5008017;28;20025;-48
2023/12/11 00:02:51;;;;;;;25.92;6.20;;;7.20;99.90;;;;;;4991290;28;20026;-45
2023/12/11 00:05:16;;;;;;;31.80;7.50;;;7.30;99.90;;;;;;5008716;28;20097;-47
2023/12/11 00:07:42;;;;;;;22.52;6.63;;;7.30;99.90;;;;;;5009051;28;20026;-46
2023/12/11 00:10:08;;;;;;;30.98;7.88;;;7.40;99.90;;;;;;5009051;28;20020;-47
2023/12/11 00:12:34;;;;;;;32.08;8.32;;;7.50;99.90;;;;;;5009238;28;20044;-46
2023/12/11 00:14:59;;;;;;;23.17;6.97;;;7.50;99.90;;;;;;5008459;28;20038;-46
2023/12/11 00:17:27;;;;;;;21.52;6.60;;;7.60;99.90;;;;;;5008822;28;20026;-46
2023/12/11 00:19:52;;;;;;;25.70;7.15;;;7.60;99.90;;;;;;5008978;28;20361;-46
2023/12/11 00:22:18;;;;;;;30.45;8.05;;;7.70;99.90;;;;;;5009452;28;20046;-46
2023/12/11 00:24:44;;;;;;;20.50;7.75;;;7.70;99.90;;;;;;5008406;28;20018;-49
2023/12/11 00:27:11;;;;;;;30.08;7.38;;;7.80;99.90;;;;;;5004652;28;20044;-50
2023/12/11 00:29:38;;;;;;;24.95;8.10;;;7.80;99.90;;;;;;5008447;28;20028;-49
2023/12/11 00:32:04;;;;;;;29.13;9.52;;;7.80;99.90;;;;;;5008950;28;20033;-46
2023/12/11 00:34:31;;;;;;;30.02;8.30;;;7.90;99.90;;;;;;5008261;28;20045;-46
2023/12/11 00:36:57;;;;;;;34.38;9.00;;;7.90;99.90;;;;;;5008415;28;20120;-46
2023/12/11 00:39:22;;;;;;;23.83;10.07;;;8.00;99.90;;;;;;5008077;28;20105;-46
2023/12/11 00:41:48;;;;;;;34.15;10.75;;;8.10;99.90;;;;;;5008279;28;20331;-49
2023/12/11 00:44:13;;;;;;;50.80;11.90;;;8.00;99.90;;;;;;5008312;28;20022;-46
2023/12/11 00:46:39;;;;;;;36.53;10.50;;;8.10;99.90;;;;;;5008459;28;20022;-47
2023/12/11 00:49:05;;;;;;;37.13;10.45;;;8.10;99.90;;;;;;5008439;28;20029;-48
2023/12/11 00:51:30;;;;;;;45.65;12.43;;;8.20;99.90;;;;;;5007630;28;20420;-46
2023/12/11 00:53:56;;;;;;;36.85;9.88;;;8.20;99.90;;;;;;5007555;28;20526;-46
2023/12/11 00:56:21;;;;;;;30.48;10.35;;;8.20;99.90;;;;;;5007164;28;20279;-47
2023/12/11 00:58:47;;;;;;;38.67;11.40;;;8.20;99.90;;;;;;5007963;28;20026;-47
2023/12/11 01:01:13;;;;;;;32.30;9.60;;;8.20;99.90;;;;;;5007405;28;20077;-46
2023/12/11 01:03:39;;;;;;;40.28;10.25;;;8.20;99.90;;;;;;5007372;28;20026;-48
2023/12/11 01:06:05;;;;;;;30.00;9.88;;;8.20;99.90;;;;;;5006701;28;20282;-47
2023/12/11 01:08:31;;;;;;;36.35;10.40;;;8.20;99.90;;;;;;5007054;28;20121;-46
2023/12/11 01:10:57;;;;;;;45.65;10.88;;;8.20;99.90;;;;;;5007119;28;20497;-46
2023/12/11 01:13:24;;;;;;;43.38;10.45;;;8.30;99.90;;;;;;5004267;28;20431;-46
2023/12/11 01:15:49;;;;;;;35.35;9.75;;;8.30;99.90;;;;;;5006667;28;20057;-46
2023/12/11 01:18:15;;;;;;;25.90;9.57;;;8.30;99.90;;;;;;4988872;28;20046;-45
2023/12/11 01:20:40;;;;;;;31.90;8.80;;;8.30;99.90;;;;;;5007038;28;20503;-46
2023/12/11 01:23:06;;;;;;;40.25;10.48;;;8.30;99.90;;;;;;5007295;28;20018;-45
2023/12/11 01:25:32;;;;;;;34.45;9.02;;;8.30;99.90;;;;;;5006634;28;20426;-46
2023/12/11 01:27:58;;;;;;;47.28;8.35;;;8.30;99.90;;;;;;5006815;28;20048;-47
2023/12/11 01:30:23;;;;;;;41.35;9.88;;;8.30;99.90;;;;;;5007378;28;20444;-46
2023/12/11 01:32:49;;;;;;;25.60;8.25;;;8.30;99.90;;;;;;5007356;28;20040;-47
2023/12/11 01:35:15;;;;;;;42.50;8.80;;;8.30;99.90;;;;;;5006692;28;20389;-46
2023/12/11 01:37:43;;;;;;;32.67;7.75;;;8.30;99.90;;;;;;5007521;28;20026;-46
2023/12/11 01:40:09;;;;;;;36.70;8.00;;;8.30;99.90;;;;;;5007282;28;20253;-47
2023/12/11 01:42:34;;;;;;;35.65;8.32;;;8.30;99.90;;;;;;5007310;28;20037;-48
2023/12/11 01:45:00;;;;;;;34.05;8.02;;;8.30;99.90;;;;;;5006808;28;20426;-45
2023/12/11 01:47:26;;;;;;;34.38;8.15;;;8.30;99.90;;;;;;5006943;28;20596;-47
2023/12/11 01:49:52;;;;;;;44.45;7.45;;;8.30;99.90;;;;;;5006947;28;20065;-47
2023/12/11 01:52:18;;;;;;;32.17;7.93;;;8.30;99.90;;;;;;5009171;28;20247;-46
2023/12/11 01:54:45;;;;;;;26.80;7.70;;;8.30;99.90;;;;;;5010359;28;20022;-48
2023/12/11 01:57:11;;;;;;;38.83;7.20;;;8.30;99.90;;;;;;5010159;28;20022;-46
2023/12/11 01:59:38;;;;;;;28.83;7.50;;;8.40;99.90;;;;;;5011054;28;20233;-46
2023/12/11 02:02:03;;;;;;;42.13;8.20;;;8.40;99.90;;;;;;4993292;28;20243;-45
2023/12/11 02:04:30;;;;;;;37.35;6.82;;;8.30;99.90;;;;;;4990667;28;20030;-45
2023/12/11 02:06:57;;;;;;;27.90;6.15;;;8.30;99.90;;;;;;4998245;28;20057;-46
2023/12/11 02:09:23;;;;;;;36.42;6.60;;;8.30;99.90;;;;;;5010516;28;20088;-45
2023/12/11 02:11:49;;;;;;;38.03;7.80;;;8.30;99.90;;;;;;5010634;28;20264;-47
2023/12/11 02:14:15;;;;;;;49.83;7.95;;;8.30;99.90;;;;;;5010615;28;20018;-46
2023/12/11 02:16:40;;;;;;;44.40;8.13;;;8.20;99.90;;;;;;5010792;28;20055;-48
2023/12/11 02:19:06;;;;;;;34.60;6.90;;;8.30;99.90;;;;;;5010895;28;20034;-50
2023/12/11 02:21:32;;;;;;;33.72;8.10;;;8.30;99.90;;;;;;5015960;28;20033;-44
2023/12/11 02:24:12;;;;;;;32.83;7.15;;;8.30;99.90;;;;;;4992654;28;20018;-45
2023/12/11 02:26:38;;;;;;;35.20;7.55;;;8.30;99.90;;;;;;5010806;28;20026;-45
2023/12/11 02:29:03;;;;;;;50.95;7.43;;;8.30;99.90;;;;;;5010759;28;20041;-45
2023/12/11 02:31:29;;;;;;;52.65;7.82;;;8.30;99.90;;;;;;5010895;28;20053;-46
2023/12/11 02:33:55;;;;;;;30.90;6.97;;;8.30;99.90;;;;;;4998331;28;20254;-45
2023/12/11 02:36:20;;;;;;;29.75;6.15;;;8.40;99.90;;;;;;5010174;28;20022;-45
2023/12/11 02:38:46;;;;;;;33.70;5.95;;;8.40;99.90;;;;;;4991897;28;20112;-47
2023/12/11 02:41:12;;;;;;;31.38;6.28;;;8.30;99.90;;;;;;5010888;28;20045;-46
2023/12/11 02:43:37;;;;;;;42.42;6.93;;;8.30;99.90;;;;;;4991302;28;20022;-46
2023/12/11 02:46:03;;;;;;;22.65;6.15;;;8.30;99.90;;;;;;5009487;28;20022;-45
2023/12/11 02:48:29;;;;;;;31.08;6.20;;;8.30;99.90;;;;;;5010469;28;20515;-45
2023/12/11 02:50:55;;;;;;;48.17;7.68;;;8.30;99.90;;;;;;5010226;28;20018;-45
2023/12/11 02:53:20;;;;;;;34.95;6.90;;;8.40;99.90;;;;;;5009959;28;20045;-45
2023/12/11 02:55:46;;;;;;;24.98;6.50;;;8.30;99.90;;;;;;5009762;28;20270;-45
2023/12/11 02:58:12;;;;;;;32.55;6.43;;;8.30;99.90;;;;;;5009685;28;20276;-46
2023/12/11 03:00:37;;;;;;;35.05;6.75;;;8.40;99.90;;;;;;5009725;28;20022;-46
2023/12/11 03:03:03;;;;;;;34.17;6.85;;;8.30;99.90;;;;;;5009328;28;20188;-46
2023/12/11 03:05:29;;;;;;;40.20;6.75;;;8.40;99.90;;;;;;5009375;28;20089;-45
2023/12/11 03:07:55;;;;;;;34.38;6.45;;;8.40;99.90;;;;;;5009881;28;20220;-46
2023/12/11 03:10:21;;;;;;;50.90;7.30;;;8.40;99.90;;;;;;5010044;28;20488;-45
2023/12/11 03:12:46;;;;;;;37.72;6.85;;;8.30;99.90;;;;;;5009411;28;20032;-46
2023/12/11 03:15:12;;;;;;;40.92;7.55;;;8.40;99.90;;;;;;5008996;28;20112;-46
2023/12/11 03:17:38;;;;;;;41.55;6.95;;;8.30;99.90;;;;;;5009419;28;20137;-47
2023/12/11 03:20:05;;;;;;;50.15;8.40;;;8.30;99.90;;;;;;5009290;28;20109;-46
2023/12/11 03:22:31;;;;;;;44.22;7.60;;;8.30;99.90;;;;;;5009456;28;20581;-48
2023/12/11 03:24:56;;;;;;;45.28;7.45;;;8.30;99.90;;;;;;5009075;28;20116;-46
2023/12/11 03:27:22;;;;;;;49.90;8.77;;;8.40;99.90;;;;;;5010018;28;20026;-46
2023/12/11 03:29:48;;;;;;;48.90;7.22;;;8.30;99.90;;;;;;5009158;28;20493;-46
2023/12/11 03:32:14;;;;;;;33.92;6.82;;;8.30;99.90;;;;;;5009141;28;20030;-47
2023/12/11 03:34:40;;;;;;;43.45;7.32;;;8.40;99.90;;;;;;5008496;28;20045;-45
2023/12/11 03:37:06;;;;;;;43.92;7.57;;;8.30;99.90;;;;;;5008940;28;20322;-46
2023/12/11 03:39:32;;;;;;;45.30;7.20;;;8.40;99.90;;;;;;5009083;28;20536;-46
2023/12/11 03:41:58;;;;;;;42.58;7.72;;;8.40;99.90;;;;;;5003994;28;20022;-46
2023/12/11 03:44:24;;;;;;;48.40;6.38;;;8.40;99.90;;;;;;5008038;28;20805;-47
2023/12/11 03:46:49;;;;;;;46.33;8.43;;;8.40;99.90;;;;;;5009003;28;20022;-45
2023/12/11 03:49:16;;;;;;;47.05;7.60;;;8.40;99.90;;;;;;5008703;28;20601;-46
2023/12/11 03:51:45;;;;;;;43.17;7.53;;;8.30;99.90;;;;;;5008751;28;20387;-45
2023/12/11 03:54:11;;;;;;;38.30;7.47;;;8.30;99.90;;;;;;5001871;28;20113;-45
2023/12/11 03:56:39;;;;;;;40.78;7.70;;;8.40;99.90;;;;;;5008460;28;20455;-45
2023/12/11 03:59:05;;;;;;;46.50;8.18;;;8.40;99.90;;;;;;5008851;28;20118;-46
2023/12/11 04:01:30;;;;;;;42.83;7.47;;;8.40;99.90;;;;;;5008675;28;20026;-51
2023/12/11 04:03:56;;;;;;;31.30;5.72;;;8.40;99.90;;;;;;5008383;28;20047;-45
2023/12/11 04:06:22;;;;;;;38.03;6.53;;;8.40;99.90;;;;;;5008179;28;20456;-47
2023/12/11 04:08:47;;;;;;;34.30;7.03;;;8.40;99.90;;;;;;5008423;28;20511;-48
2023/12/11 04:11:13;;;;;;;46.47;7.43;;;8.40;99.90;;;;;;5008465;28;20021;-47
2023/12/11 04:13:38;;;;;;;43.72;7.60;;;8.40;99.90;;;;;;5008102;28;20113;-46
2023/12/11 04:16:05;;;;;;;32.08;6.32;;;8.50;99.90;;;;;;5007244;28;20512;-46
2023/12/11 04:18:31;;;;;;;34.72;6.45;;;8.60;99.90;;;;;;5008256;28;20514;-44
2023/12/11 04:20:57;;;;;;;25.27;5.63;;;8.60;99.90;;;;;;5008064;28;20518;-44
2023/12/11 04:23:23;;;;;;;22.05;6.40;;;8.70;99.90;;;;;;5008084;28;20026;-47
2023/12/11 04:25:49;;;;;;;25.10;6.38;;;8.80;99.90;;;;;;5007678;28;20022;-45
2023/12/11 04:28:15;;;;;;;33.97;5.60;;;8.90;99.90;;;;;;5008171;28;20109;-44
2023/12/11 04:30:40;;;;;;;31.10;6.45;;;8.90;99.90;;;;;;5007978;28;20033;-46
2023/12/11 04:33:06;;;;;;;34.20;6.72;;;8.90;99.90;;;;;;5007894;28;20541;-45
2023/12/11 04:35:32;;;;;;;25.33;5.85;;;8.90;99.90;;;;;;5007545;28;20026;-45
2023/12/11 04:37:57;;;;;;;21.92;6.75;;;8.90;99.90;;;;;;5008076;28;20049;-45
2023/12/11 04:40:23;;;;;;;27.58;6.45;;;8.90;99.90;;;;;;5008540;28;20042;-46
2023/12/11 04:42:48;;;;;;;30.42;7.40;;;9.00;99.90;;;;;;5007905;28;20463;-45
2023/12/11 04:45:14;;;;;;;26.70;8.52;;;9.00;99.90;;;;;;5007215;28;20029;-44
2023/12/11 04:47:40;;;;;;;26.85;6.50;;;9.00;99.90;;;;;;5008117;28;20356;-49
2023/12/11 04:50:06;;;;;;;25.17;7.13;;;9.00;99.90;;;;;;5008040;28;20017;-45
2023/12/11 04:52:31;;;;;;;39.63;8.02;;;8.90;99.90;;;;;;5008027;28;20406;-46
2023/12/11 04:54:57;;;;;;;28.40;8.57;;;8.90;99.90;;;;;;5007581;28;20379;-46
2023/12/11 04:57:23;;;;;;;29.98;7.35;;;9.00;99.90;;;;;;5008169;28;20034;-49
2023/12/11 04:59:49;;;;;;;36.10;7.75;;;9.00;99.90;;;;;;5008029;28;20028;-44
2023/12/11 05:02:14;;;;;;;28.58;7.05;;;9.00;99.90;;;;;;5007927;28;20077;-45
2023/12/11 05:04:40;;;;;;;26.02;7.57;;;8.90;99.90;;;;;;5006373;28;20018;-46
2023/12/11 05:07:06;;;;;;;32.50;8.18;;;8.90;99.90;;;;;;5007215;28;20451;-46
2023/12/11 05:09:32;;;;;;;29.88;7.60;;;8.90;99.90;;;;;;5007466;28;20045;-45
2023/12/11 05:11:57;;;;;;;26.17;7.47;;;8.80;99.90;;;;;;5007482;28;20054;-46
2023/12/11 05:14:23;;;;;;;33.05;8.40;;;8.80;99.90;;;;;;5006891;28;20025;-47
2023/12/11 05:16:49;;;;;;;22.58;7.53;;;8.70;99.90;;;;;;5007463;28;20037;-45
2023/12/11 05:19:14;;;;;;;26.92;7.00;;;8.70;99.90;;;;;;5007784;28;20018;-48
2023/12/11 05:21:44;;;;;;;21.88;6.97;;;8.70;99.90;;;;;;5007048;28;20479;-48
2023/12/11 05:24:10;;;;;;;30.92;7.80;;;8.70;99.90;;;;;;5005827;28;20380;-50
2023/12/11 05:26:36;;;;;;;37.17;9.50;;;8.70;99.90;;;;;;5009677;28;20046;-45
2023/12/11 05:29:03;;;;;;;24.63;6.95;;;8.70;99.90;;;;;;5011239;28;20521;-45
2023/12/11 05:31:30;;;;;;;30.17;7.95;;;8.70;99.90;;;;;;5011121;28;20100;-45
2023/12/11 05:33:55;;;;;;;26.77;7.53;;;8.70;99.90;;;;;;5011552;28;20025;-44
2023/12/11 05:36:21;;;;;;;29.05;6.93;;;8.70;99.90;;;;;;5011350;28;20038;-45
2023/12/11 05:38:47;;;;;;;44.22;8.00;;;8.80;99.90;;;;;;4993754;28;20034;-45
2023/12/11 05:41:12;;;;;;;24.75;7.40;;;8.70;99.90;;;;;;5011266;28;20408;-47
2023/12/11 05:43:38;;;;;;;32.58;7.93;;;8.70;99.90;;;;;;5011517;28;20080;-46
2023/12/11 05:46:04;;;;;;;38.20;9.07;;;8.80;99.90;;;;;;5010796;28;20021;-46
2023/12/11 05:48:29;;;;;;;31.92;6.97;;;8.80;99.90;;;;;;5011345;28;20033;-45
2023/12/11 05:50:55;;;;;;;28.88;7.13;;;8.80;99.90;;;;;;5010806;28;20049;-48
2023/12/11 05:53:20;;;;;;;28.83;7.40;;;8.80;99.90;;;;;;5010817;28;20482;-46
2023/12/11 05:55:46;;;;;;;31.85;7.30;;;8.80;99.90;;;;;;4991423;28;20456;-44
2023/12/11 05:58:12;;;;;;;27.27;6.68;;;8.90;99.90;;;;;;5010804;28;20026;-46
2023/12/11 06:00:37;;;;;;;35.53;6.32;;;9.00;99.90;;;;;;5011168;28;20030;-48
2023/12/11 06:03:03;;;;;;;28.73;7.10;;;9.00;99.90;;;;;;5011295;28;20503;-45
2023/12/11 06:05:28;;;;;;;29.48;6.70;;;9.00;99.90;;;;;;5010999;28;20014;-45
2023/12/11 06:07:54;;;;;;;27.23;6.53;;;9.10;99.90;;;;;;5010975;28;20073;-44
2023/12/11 06:10:20;;;;;;;26.58;6.40;;;9.10;99.90;;;;;;5010655;28;20446;-45
2023/12/11 06:12:46;;;;;;;22.45;5.50;;;9.10;99.90;;;;;;5009357;28;20037;-45
2023/12/11 06:15:11;;;;;;;29.77;6.35;;;9.10;99.90;;;;;;5009461;28;20087;-47
2023/12/11 06:17:37;;;;;;;32.45;6.22;;;9.00;99.90;;;;;;5010675;28;20154;-47
2023/12/11 06:20:04;;;;;;;33.45;7.25;;;9.00;99.90;;;;;;5016464;28;20021;-49
2023/12/11 06:22:30;;;;;;;35.55;6.60;;;8.90;99.90;;;;;;5010492;28;20030;-47
2023/12/11 06:24:55;;;;;;;28.75;5.82;;;8.90;99.90;;;;;;5010006;28;20018;-45
2023/12/11 06:27:22;;;;;;;34.28;6.63;;;8.80;99.90;;;;;;5010583;28;20028;-44
2023/12/11 06:29:48;;;;;;;28.65;5.85;;;8.80;99.90;;;;;;5010420;28;20052;-49
2023/12/11 06:32:14;;;;;;;31.63;5.90;;;8.70;99.90;;;;;;5010394;28;20018;-46
2023/12/11 06:34:39;;;;;;;30.13;6.10;;;8.70;99.90;;;;;;5010071;28;20057;-46
2023/12/11 06:37:05;;;;;;;27.08;6.25;;;8.60;99.90;;;;;;5010013;28;20073;-45
2023/12/11 06:39:31;;;;;;;29.92;5.55;;;8.60;99.90;;;;;;5010438;28;20026;-46
2023/12/11 06:41:57;;;;;;;33.25;6.93;;;8.60;99.90;;;;;;5010280;28;20014;-49
2023/12/11 06:44:23;;;;;;;27.67;5.85;;;8.50;99.90;;;;;;5010232;28;20022;-49
2023/12/11 06:46:48;;;;;;;27.50;5.82;;;8.50;99.90;;;;;;5010570;28;20434;-45
2023/12/11 06:49:14;;;;;;;23.73;5.78;;;8.50;99.90;;;;;;5008746;28;20429;-46
2023/12/11 06:51:40;;;;;;;26.23;5.70;;;8.50;99.90;;;;;;5009548;28;20026;-46
2023/12/11 06:54:05;;;;;;;19.40;4.82;;;8.60;99.90;;;;;;5009174;28;20088;-45
2023/12/11 06:56:31;;;;;;;29.40;6.20;;;8.60;99.90;;;;;;5008864;28;20030;-45
2023/12/11 06:58:57;;;;;;;18.30;5.07;;;8.60;99.90;;;;;;5015668;28;20026;-45
2023/12/11 07:01:41;;;;;;;26.73;6.13;;;8.60;99.90;;;;;;5017968;28;20021;-45
2023/12/11 07:04:07;;;;;;;27.05;5.78;;;8.60;99.90;;;;;;5015712;28;20088;-49
2023/12/11 07:06:33;;;;;;;30.92;5.38;;;8.60;99.90;;;;;;5016131;28;20458;-45
2023/12/11 07:08:58;;;;;;;29.73;6.45;;;8.60;99.90;;;;;;5015386;28;20137;-48
2023/12/11 07:11:24;;;;;;;22.25;5.25;;;8.60;99.90;;;;;;5017057;28;20021;-44
2023/12/11 07:13:50;;;;;;;24.25;5.55;;;8.50;99.90;;;;;;5011987;28;20029;-47
2023/12/11 07:16:15;;;;;;;26.88;6.18;;;8.40;99.90;;;;;;5008997;28;20629;-45
2023/12/11 07:18:42;;;;;;;26.58;5.47;;;8.40;99.90;;;;;;5008956;28;20033;-45
2023/12/11 07:21:09;;;;;;;29.08;6.00;;;8.40;99.90;;;;;;5009525;28;20044;-49
2023/12/11 07:23:35;;;;;;;28.88;5.70;;;8.30;99.90;;;;;;5009327;28;20079;-46
2023/12/11 07:26:00;;;;;;;29.42;6.22;;;8.30;99.90;;;;;;5008965;28;20105;-47
2023/12/11 07:28:26;;;;;;;25.15;6.00;;;8.30;99.90;;;;;;5009802;28;20037;-47
2023/12/11 07:30:52;;;;;;;28.33;6.43;;;8.30;99.90;;;;;;5009581;28;20025;-46
2023/12/11 07:33:17;;;;;;;28.58;5.93;;;8.30;99.90;;;;;;5013775;28;20063;-46
2023/12/11 07:35:43;;;;;;;31.17;6.32;;;8.20;99.90;;;;;;5011092;28;20517;-46
2023/12/11 07:38:08;;;;;;;33.33;6.85;;;8.20;99.90;;;;;;4991400;28;20022;-49
2023/12/11 07:40:34;;;;;;;39.95;7.28;;;8.20;99.90;;;;;;5009352;28;20032;-45
2023/12/11 07:43:00;;;;;;;32.83;7.85;;;8.20;99.90;;;;;;5009306;28;20014;-44
2023/12/11 07:45:25;;;;;;;32.83;7.70;;;8.10;99.90;;;;;;5008683;28;20018;-48
2023/12/11 07:47:51;;;;;;;39.47;6.78;;;8.10;99.90;;;;;;5008664;28;20034;-45
2023/12/11 07:50:17;;;;;;;28.77;5.63;;;8.10;99.90;;;;;;5007275;28;20475;-46
2023/12/11 07:52:42;;;;;;;26.30;5.97;;;8.10;99.90;;;;;;5008697;28;20530;-47
2023/12/11 07:55:08;;;;;;;39.97;7.75;;;8.10;99.90;;;;;;5007896;28;20049;-48
2023/12/11 07:57:34;;;;;;;20.52;5.25;;;8.10;99.90;;;;;;5008465;28;20030;-46
2023/12/11 07:59:59;;;;;;;29.90;7.22;;;8.10;99.90;;;;;;4991024;28;20136;-48
2023/12/11 08:02:25;;;;;;;20.48;4.35;;;8.10;99.90;;;;;;5008280;28;20018;-46
2023/12/11 08:04:51;;;;;;;23.33;6.45;;;8.10;99.90;;;;;;5007606;28;20307;-48
2023/12/11 08:07:18;;;;;;;19.42;4.80;;;8.10;99.90;;;;;;5008614;28;20025;-45
2023/12/11 08:09:44;;;;;;;33.33;5.03;;;8.10;99.90;;;;;;5008611;28;20022;-48
2023/12/11 08:12:10;;;;;;;26.27;5.97;;;8.10;99.90;;;;;;5008312;28;20025;-46
2023/12/11 08:14:36;;;;;;;28.02;6.43;;;8.10;99.90;;;;;;5007651;28;20041;-47
2023/12/11 08:17:03;;;;;;;32.53;4.80;;;8.10;99.90;;;;;;5014907;28;20022;-44
2023/12/11 08:19:29;;;;;;;29.02;4.80;;;8.10;99.90;;;;;;5008222;28;20022;-46
2023/12/11 08:21:54;;;;;;;34.03;6.85;;;8.10;99.90;;;;;;5009669;28;20466;-47
2023/12/11 08:24:20;;;;;;;28.85;5.28;;;8.10;99.90;;;;;;5009979;28;20513;-46
2023/12/11 08:26:46;;;;;;;23.67;4.95;;;8.10;99.90;;;;;;5007601;28;20022;-45
2023/12/11 08:29:12;;;;;;;32.78;5.35;;;8.10;99.90;;;;;;5007949;28;20018;-45
2023/12/11 08:31:38;;;;;;;19.30;5.13;;;8.10;99.90;;;;;;5007677;28;20514;-45
2023/12/11 08:34:03;;;;;;;20.48;4.68;;;8.10;99.90;;;;;;5005808;28;20033;-46
2023/12/11 08:36:29;;;;;;;18.20;4.07;;;8.10;99.90;;;;;;5007754;28;20022;-46
2023/12/11 08:38:54;;;;;;;27.25;5.70;;;8.10;99.90;;;;;;4988594;28;20087;-47
2023/12/11 08:41:20;;;;;;;25.60;5.50;;;8.10;99.90;;;;;;5007571;28;20434;-48
2023/12/11 08:43:46;;;;;;;19.17;4.30;;;8.10;99.90;;;;;;5014624;28;20029;-45
2023/12/11 08:46:12;;;;;;;21.42;4.03;;;8.20;99.90;;;;;;5007134;28;20021;-45
2023/12/11 08:48:38;;;;;;;27.17;5.65;;;8.30;99.90;;;;;;4986388;28;20367;-46
2023/12/11 08:51:04;;;;;;;19.40;3.75;;;8.40;99.90;;;;;;5007523;28;20169;-47
2023/12/11 08:53:30;;;;;;;30.90;6.32;;;8.40;99.90;;;;;;5007384;28;20451;-46
2023/12/11 08:55:55;;;;;;;29.45;4.50;;;8.60;99.90;;;;;;5008126;28;20096;-45
2023/12/11 08:58:21;;;;;;;19.75;3.80;;;8.60;99.90;;;;;;5007456;28;20451;-48
2023/12/11 09:00:47;;;;;;;18.23;4.32;;;8.60;99.90;;;;;;5006936;28;20109;-46
2023/12/11 09:03:13;;;;;;;16.05;3.97;;;8.60;99.90;;;;;;5008035;28;20069;-46
2023/12/11 09:05:39;;;;;;;25.55;4.47;;;8.60;99.90;;;;;;5006872;28;20104;-45
2023/12/11 09:08:04;;;;;;;19.70;4.57;;;8.50;99.90;;;;;;4996777;28;20026;-45
2023/12/11 09:10:30;;;;;;;26.30;4.40;;;8.50;99.90;;;;;;4986416;28;20026;-46
2023/12/11 09:12:56;;;;;;;20.10;4.80;;;8.50;99.90;;;;;;5006361;28;20100;-45
2023/12/11 09:15:22;;;;;;;23.50;3.80;;;8.50;99.90;;;;;;5006242;28;20475;-46
2023/12/11 09:17:47;;;;;;;23.05;4.60;;;8.50;99.90;;;;;;5007398;28;20030;-47
2023/12/11 09:20:13;;;;;;;21.90;5.30;;;8.50;99.90;;;;;;5007460;28;20037;-46
2023/12/11 09:22:40;;;;;;;22.40;4.65;;;8.50;99.90;;;;;;5007944;28;20076;-48
2023/12/11 09:25:07;;;;;;;24.05;4.03;;;8.50;99.90;;;;;;5014820;28;20022;-48
2023/12/11 09:27:32;;;;;;;15.90;4.10;;;8.50;99.90;;;;;;5008087;28;20041;-47
2023/12/11 09:29:58;;;;;;;17.80;3.95;;;8.40;99.90;;;;;;5008214;28;20364;-48
2023/12/11 09:32:24;;;;;;;17.65;4.70;;;8.40;99.90;;;;;;5008118;28;20085;-49
2023/12/11 09:34:51;;;;;;;19.70;3.88;;;8.50;99.90;;;;;;5007510;28;20127;-45
2023/12/11 09:37:19;;;;;;;15.00;3.70;;;8.50;99.90;;;;;;5008344;28;20057;-46
2023/12/11 09:39:46;;;;;;;17.00;4.07;;;8.50;99.90;;;;;;4987749;28;20026;-46
2023/12/11 09:42:13;;;;;;;17.73;3.53;;;8.60;99.90;;;;;;5008298;28;20017;-45
2023/12/11 09:44:41;;;;;;;14.90;3.35;;;8.60;99.90;;;;;;5007196;28;20032;-48
2023/12/11 09:47:13;;;;;;;12.50;3.67;;;8.70;99.90;;;;;;4997297;28;20487;-48
2023/12/11 09:49:38;;;;;;;13.02;3.15;;;8.80;99.90;;;;;;5007603;28;20029;-48
2023/12/11 09:52:04;;;;;;;15.77;3.33;;;8.90;99.90;;;;;;5007452;28;20024;-46
2023/12/11 09:54:30;;;;;;;11.40;2.80;;;9.00;99.90;;;;;;5007171;28;20057;-48
2023/12/11 09:56:57;;;;;;;13.13;3.35;;;9.20;99.90;;;;;;5008218;28;20509;-45
2023/12/11 09:59:25;;;;;;;16.30;3.90;;;9.40;99.90;;;;;;5025763;28;20024;-47
2023/12/11 10:01:51;;;;;;;11.73;3.08;;;9.50;99.90;;;;;;5021565;28;20117;-48
2023/12/11 10:04:17;;;;;;;13.10;3.90;;;9.50;99.90;;;;;;5013346;28;20033;-47
2023/12/11 10:06:43;;;;;;;11.10;3.03;;;9.60;99.90;;;;;;5019696;28;20025;-48
2023/12/11 10:09:29;;;;;;;16.67;3.42;;;9.60;99.90;;;;;;5015119;28;20017;-49
2023/12/11 10:12:03;;;;;;;17.15;5.03;;;9.60;99.90;;;;;;5026164;28;20084;-47
2023/12/11 10:14:32;;;;;;;14.52;3.85;;;9.60;99.90;;;;;;5029359;28;20105;-48
2023/12/11 10:16:58;;;;;;;12.93;3.15;;;9.60;99.90;;;;;;5029898;28;20033;-45
2023/12/11 10:19:31;;;;;;;12.60;3.10;;;9.70;99.90;;;;;;5021579;28;20097;-45
2023/12/11 10:21:57;;;;;;;11.45;3.45;;;9.70;99.90;;;;;;5005617;28;20022;-46
2023/12/11 10:24:23;;;;;;;12.52;3.42;;;9.80;99.90;;;;;;5004358;28;20031;-47
2023/12/11 10:26:57;;;;;;;12.25;3.10;;;9.90;99.90;;;;;;5023937;28;20028;-48
2023/12/11 10:29:27;;;;;;;15.43;3.28;;;9.90;99.90;;;;;;5030480;28;20068;-47
2023/12/11 10:32:00;;;;;;;11.05;3.08;;;9.80;99.90;;;;;;5018074;28;20394;-54
2023/12/11 10:34:45;;;;;;;17.08;3.90;;;9.70;99.90;;;;;;5018913;28;20435;-48
2023/12/11 10:37:17;;;;;;;19.20;3.20;;;9.60;99.90;;;;;;5007148;28;20104;-50
2023/12/11 10:39:53;;;;;;;15.00;4.10;;;9.50;99.90;;;;;;5021958;28;20056;-47
2023/12/11 10:42:18;;;;;;;17.50;3.47;;;9.50;99.90;;;;;;5016915;28;20010;-48
2023/12/11 10:44:44;;;;;;;13.55;3.33;;;9.40;99.90;;;;;;5029719;28;20063;-49
2023/12/11 10:47:10;;;;;;;20.35;4.20;;;9.40;99.90;;;;;;5014245;28;20017;-48
2023/12/11 10:49:36;;;;;;;15.38;4.10;;;9.30;99.90;;;;;;5030166;28;20029;-47
2023/12/11 10:52:03;;;;;;;16.60;4.82;;;9.20;99.90;;;;;;5029945;28;20044;-45
2023/12/11 10:54:29;;;;;;;13.70;4.05;;;9.20;99.90;;;;;;5028896;28;20391;-47
2023/12/11 10:56:56;;;;;;;14.18;3.85;;;9.10;99.90;;;;;;5008440;28;20443;-46
2023/12/11 10:59:22;;;;;;;11.88;3.60;;;9.10;99.90;;;;;;5009405;28;20018;-46
2023/12/11 11:01:49;;;;;;;12.75;3.65;;;9.00;99.90;;;;;;5009672;28;20498;-45
2023/12/11 11:04:18;;;;;;;14.07;4.32;;;9.00;99.90;;;;;;5007443;28;20045;-45
2023/12/11 11:07:09;;;;;;;21.33;4.65;;;9.00;99.90;;;;;;5009851;28;20025;-48
2023/12/11 11:10:03;;;;;;;18.30;4.47;;;9.00;99.90;;;;;;4993292;28;20045;-46
2023/12/11 11:12:56;;;;;;;13.10;3.70;;;8.90;99.90;;;;;;5011013;28;20045;-46
2023/12/11 11:15:25;;;;;;;15.48;4.07;;;8.90;99.90;;;;;;5010110;28;20036;-49
2023/12/11 11:18:05;;;;;;;16.38;4.18;;;8.80;99.90;;;;;;5011181;28;20109;-45
2023/12/11 11:20:34;;;;;;;18.27;4.22;;;8.80;99.90;;;;;;5009894;28;20018;-49
2023/12/11 11:23:15;;;;;;;18.58;4.55;;;8.80;99.90;;;;;;5008902;28;20581;-49
2023/12/11 11:25:42;;;;;;;16.80;3.97;;;8.80;99.90;;;;;;5008342;28;20624;-46
2023/12/11 11:28:37;;;;;;;19.58;4.68;;;8.80;99.90;;;;;;5009068;28;20030;-48
2023/12/11 11:31:03;;;;;;;18.65;4.97;;;8.70;99.90;;;;;;5007937;28;20022;-45
2023/12/11 11:33:52;;;;;;;16.98;4.93;;;8.70;99.90;;;;;;5008588;28;20022;-44
2023/12/11 11:36:19;;;;;;;24.17;4.80;;;8.70;99.90;;;;;;5008787;28;20036;-44
2023/12/11 11:38:58;;;;;;;19.95;5.15;;;8.70;99.90;;;;;;5008087;28;20108;-47
2023/12/11 11:41:25;;;;;;;19.77;4.53;;;8.60;99.90;;;;;;5009066;28;20014;-45
2023/12/11 11:44:07;;;;;;;18.48;5.03;;;8.60;99.90;;;;;;5008907;28;20018;-44
2023/12/11 11:47:00;;;;;;;30.20;6.18;;;8.60;99.90;;;;;;5012986;28;20391;-48
2023/12/11 11:49:27;;;;;;;15.63;4.57;;;8.60;99.90;;;;;;5008005;28;20318;-44
2023/12/11 11:51:53;;;;;;;19.23;5.50;;;8.50;99.90;;;;;;4991516;28;20022;-46
2023/12/11 11:54:21;;;;;;;20.23;5.47;;;8.50;99.90;;;;;;5009197;28;20014;-44
2023/12/11 11:56:48;;;;;;;16.80;5.13;;;8.50;99.90;;;;;;5008461;28;20057;-44
2023/12/11 11:59:20;;;;;;;22.70;5.32;;;8.50;99.90;;;;;;5009076;28;20028;-45
2023/12/11 12:01:53;;;;;;;17.38;5.70;;;8.50;99.90;;;;;;4991553;28;20029;-48
2023/12/11 12:04:29;;;;;;;16.73;4.97;;;8.50;99.90;;;;;;5009016;28;20104;-45
2023/12/11 12:06:57;;;;;;;28.27;6.47;;;8.40;99.90;;;;;;5008711;28;20534;-47
2023/12/11 12:09:23;;;;;;;21.48;6.57;;;8.40;99.90;;;;;;5009169;28;20452;-44
2023/12/11 12:11:49;;;;;;;20.55;5.80;;;8.40;99.90;;;;;;5008840;28;20021;-46
2023/12/11 12:14:15;;;;;;;41.38;7.13;;;8.40;99.90;;;;;;5008317;28;20030;-45
2023/12/11 12:16:41;;;;;;;25.98;6.40;;;8.40;99.90;;;;;;4991026;28;20034;-46
2023/12/11 12:19:06;;;;;;;22.73;6.13;;;8.40;99.90;;;;;;5007579;28;20033;-46
2023/12/11 12:21:58;;;;;;;20.80;5.97;;;8.40;99.90;;;;;;5008762;28;20026;-47
2023/12/11 12:24:25;;;;;;;17.00;5.72;;;8.50;99.90;;;;;;5002559;28;20471;-44
2023/12/11 12:26:57;;;;;;;24.83;6.68;;;8.40;99.90;;;;;;5008173;28;20022;-46
2023/12/11 12:29:25;;;;;;;17.35;6.25;;;8.40;99.90;;;;;;5008375;28;20026;-45
2023/12/11 12:31:51;;;;;;;19.38;5.30;;;8.40;99.90;;;;;;4991490;28;20022;-46
2023/12/11 12:34:17;;;;;;;28.35;6.10;;;8.40;99.90;;;;;;5006879;28;20021;-46
2023/12/11 12:36:44;;;;;;;21.80;6.68;;;8.40;99.90;;;;;;5007882;28;20089;-46
2023/12/11 12:39:17;;;;;;;22.85;5.78;;;8.50;99.90;;;;;;5008637;28;20033;-44
2023/12/11 12:41:43;;;;;;;16.85;6.28;;;8.50;99.90;;;;;;4989300;28;20022;-44
2023/12/11 12:44:08;;;;;;;23.15;5.53;;;8.50;99.90;;;;;;5007329;28;20092;-45